Time;durP1;ratioP1;P1;durP2;ratioP2;P2;SDS_P1;SDS_P2;PMS_P1;PMS_P2;Temp;Humidity;BMP_temperature;BMP_pressure;BME280_temperature;BME280_humidity;BME280_pressure;Samples;Min_cycle;Max_cycle;Signal;HPM_P1;HPM_P2
2022/06/27 00:01:34;;;;;;;14.13;2.40;;;23.30;67.40;;;;;;5012487;28;20065;-53
2022/06/27 00:04:01;;;;;;;8.68;2.30;;;23.10;76.10;;;;;;5012682;28;20049;-52
2022/06/27 00:06:28;;;;;;;10.27;1.92;;;22.90;85.40;;;;;;5013017;28;20037;-54
2022/06/27 00:08:55;;;;;;;12.52;2.22;;;22.60;91.50;;;;;;5012972;28;20553;-52
2022/06/27 00:11:22;;;;;;;5.25;2.00;;;22.40;98.80;;;;;;5012957;28;20044;-53
2022/06/27 00:13:49;;;;;;;6.65;2.30;;;22.20;99.90;;;;;;5011587;28;20760;-53
2022/06/27 00:16:16;;;;;;;3.38;1.75;;;22.00;99.90;;;;;;5011833;28;20211;-53
2022/06/27 00:19:03;;;;;;;4.47;2.60;;;21.80;99.90;;;;;;4997717;28;20082;-53
2022/06/27 00:21:30;;;;;;;2.83;2.00;;;21.50;99.90;;;;;;5011581;28;20411;-55
2022/06/27 00:23:57;;;;;;;6.55;3.13;;;21.40;99.90;;;;;;5012433;28;20057;-54
2022/06/27 00:26:24;;;;;;;3.00;2.33;;;21.20;99.90;;;;;;5012851;28;20073;-53
2022/06/27 00:28:51;;;;;;;8.55;2.42;;;21.00;99.90;;;;;;5010815;28;20041;-54
2022/06/27 00:31:18;;;;;;;6.38;2.65;;;20.90;99.90;;;;;;5012234;28;20042;-53
2022/06/27 00:33:45;;;;;;;3.17;2.35;;;20.80;99.90;;;;;;5011334;28;20056;-52
2022/06/27 00:36:12;;;;;;;11.90;2.67;;;20.70;99.90;;;;;;5010650;28;20038;-54
2022/06/27 00:38:40;;;;;;;10.75;2.70;;;20.60;99.90;;;;;;5011959;28;20038;-52
2022/06/27 00:41:07;;;;;;;11.55;2.47;;;20.50;99.90;;;;;;5012061;28;20092;-53
2022/06/27 00:43:34;;;;;;;6.75;2.75;;;20.40;99.90;;;;;;5010380;28;20033;-54
2022/06/27 00:46:00;;;;;;;4.28;2.58;;;20.40;99.90;;;;;;5009954;28;20061;-54
2022/06/27 00:48:27;;;;;;;5.53;2.30;;;20.30;99.90;;;;;;5010072;28;20060;-54
2022/06/27 00:50:56;;;;;;;4.43;2.47;;;20.20;99.90;;;;;;5010934;28;20148;-54
2022/06/27 00:53:23;;;;;;;4.28;2.60;;;20.10;99.90;;;;;;5009960;28;20734;-54
2022/06/27 00:55:54;;;;;;;3.58;2.72;;;20.10;99.90;;;;;;4995363;28;20536;-52
2022/06/27 00:58:21;;;;;;;2.92;2.50;;;20.00;99.90;;;;;;5011671;28;20766;-55
2022/06/27 01:00:48;;;;;;;3.33;2.65;;;20.00;99.90;;;;;;5012483;28;20042;-54
2022/06/27 01:03:15;;;;;;;2.35;2.15;;;20.00;99.90;;;;;;5011447;28;20527;-54
2022/06/27 01:05:51;;;;;;;4.18;2.53;;;20.00;99.90;;;;;;5010267;28;20052;-55
2022/06/27 01:08:23;;;;;;;3.73;2.40;;;20.00;99.90;;;;;;5011802;28;20048;-54
2022/06/27 01:10:51;;;;;;;4.63;2.35;;;20.00;99.90;;;;;;5010352;28;20460;-53
2022/06/27 01:13:18;;;;;;;6.53;2.45;;;19.90;99.90;;;;;;5011740;28;20227;-51
2022/06/27 01:15:45;;;;;;;4.90;2.67;;;19.90;99.90;;;;;;5009378;28;20053;-52
2022/06/27 01:18:13;;;;;;;4.28;2.60;;;19.80;99.90;;;;;;5011518;28;20049;-55
2022/06/27 01:20:43;;;;;;;4.00;2.55;;;19.80;99.90;;;;;;5008173;28;20049;-55
2022/06/27 01:23:10;;;;;;;7.32;2.65;;;19.70;99.90;;;;;;5007019;28;20060;-55
2022/06/27 01:25:38;;;;;;;2.10;1.90;;;19.70;99.90;;;;;;5006787;28;20046;-53
2022/06/27 01:28:07;;;;;;;3.03;2.72;;;19.60;99.90;;;;;;5009770;28;20049;-54
2022/06/27 01:30:35;;;;;;;3.67;2.30;;;19.50;99.90;;;;;;4997391;28;20045;-54
2022/06/27 01:33:02;;;;;;;2.35;2.00;;;19.50;99.90;;;;;;5013301;28;20041;-55
2022/06/27 01:35:29;;;;;;;2.50;2.13;;;19.40;99.90;;;;;;5013987;28;20083;-54
2022/06/27 01:37:57;;;;;;;2.42;2.15;;;19.40;99.90;;;;;;5013305;28;20507;-54
2022/06/27 01:40:26;;;;;;;2.10;1.95;;;19.30;99.90;;;;;;5013914;28;20038;-54
2022/06/27 01:42:54;;;;;;;3.20;2.30;;;19.30;99.90;;;;;;5013073;28;20129;-53
2022/06/27 01:45:21;;;;;;;4.25;3.00;;;19.20;99.90;;;;;;5014120;28;20095;-55
2022/06/27 01:47:48;;;;;;;4.70;2.47;;;19.10;99.90;;;;;;5013830;28;20065;-53
2022/06/27 01:50:19;;;;;;;7.40;2.40;;;19.10;99.90;;;;;;5013198;28;20049;-53
2022/06/27 01:52:50;;;;;;;2.08;1.92;;;19.10;99.90;;;;;;5013839;28;20057;-53
2022/06/27 01:55:19;;;;;;;2.35;2.15;;;19.10;99.90;;;;;;5015046;28;20308;-53
2022/06/27 01:57:47;;;;;;;7.57;2.35;;;19.10;99.90;;;;;;5014942;28;20084;-54
2022/06/27 02:00:15;;;;;;;2.55;2.30;;;19.00;99.90;;;;;;5012352;28;20073;-55
2022/06/27 02:02:58;;;;;;;6.25;2.33;;;19.00;99.90;;;;;;5015590;28;20052;-54
2022/06/27 02:05:29;;;;;;;4.25;2.22;;;18.90;99.90;;;;;;5013181;28;20339;-53
2022/06/27 02:07:58;;;;;;;8.07;3.08;;;18.90;99.90;;;;;;5013497;28;20041;-54
2022/06/27 02:10:25;;;;;;;3.00;2.40;;;18.80;99.90;;;;;;5013333;28;20092;-54
2022/06/27 02:12:53;;;;;;;6.45;2.70;;;18.80;99.90;;;;;;5013761;28;20053;-54
2022/06/27 02:15:20;;;;;;;5.20;2.80;;;18.70;99.90;;;;;;5015513;28;20057;-55
2022/06/27 02:17:48;;;;;;;4.95;2.25;;;18.60;99.90;;;;;;5013289;28;20103;-53
2022/06/27 02:20:15;;;;;;;3.67;2.55;;;18.50;99.90;;;;;;5013799;28;21010;-54
2022/06/27 02:22:42;;;;;;;2.60;2.40;;;18.50;99.90;;;;;;5011663;28;20087;-54
2022/06/27 02:25:10;;;;;;;6.07;2.70;;;18.50;99.90;;;;;;5015075;28;20052;-54
2022/06/27 02:27:37;;;;;;;6.85;2.42;;;18.40;99.90;;;;;;5015043;28;20053;-55
2022/06/27 02:30:12;;;;;;;4.65;2.75;;;18.40;99.90;;;;;;5013713;28;20058;-54
2022/06/27 02:32:39;;;;;;;5.13;2.30;;;18.30;99.90;;;;;;5016014;28;20054;-54
2022/06/27 02:35:07;;;;;;;5.13;2.47;;;18.30;99.90;;;;;;5013716;28;20052;-53
2022/06/27 02:37:35;;;;;;;4.55;2.80;;;18.20;99.90;;;;;;5015717;28;20038;-54
2022/06/27 02:40:05;;;;;;;3.15;2.20;;;18.20;99.90;;;;;;5012892;28;20049;-53
2022/06/27 02:42:33;;;;;;;2.58;2.30;;;18.20;99.90;;;;;;5014941;28;20056;-55
2022/06/27 02:45:01;;;;;;;3.85;2.53;;;18.20;99.90;;;;;;5015662;28;20579;-53
2022/06/27 02:47:31;;;;;;;6.40;2.58;;;18.20;99.90;;;;;;5014064;28;20050;-55
2022/06/27 02:49:58;;;;;;;3.53;2.90;;;18.20;99.90;;;;;;5013827;28;20169;-55
2022/06/27 02:52:30;;;;;;;10.77;3.42;;;18.20;99.90;;;;;;5015187;28;20044;-54
2022/06/27 02:55:03;;;;;;;4.38;2.47;;;18.20;99.90;;;;;;4998007;28;20049;-54
2022/06/27 02:57:41;;;;;;;4.18;1.80;;;18.20;99.90;;;;;;5013236;28;20111;-55
2022/06/27 03:00:09;;;;;;;7.88;2.20;;;18.10;99.90;;;;;;5013515;28;20045;-54
2022/06/27 03:02:38;;;;;;;2.78;2.05;;;18.10;99.90;;;;;;5012624;28;20461;-54
2022/06/27 03:05:23;;;;;;;2.38;2.17;;;18.10;99.90;;;;;;5014867;28;20411;-55
2022/06/27 03:07:51;;;;;;;3.28;1.83;;;18.00;99.90;;;;;;5013578;28;20045;-54
2022/06/27 03:10:18;;;;;;;5.40;1.48;;;18.00;99.90;;;;;;5013365;28;20081;-54
2022/06/27 03:12:47;;;;;;;2.17;1.20;;;17.90;99.90;;;;;;5013054;28;20045;-52
2022/06/27 03:15:14;;;;;;;2.70;1.42;;;17.90;99.90;;;;;;5013268;28;20170;-55
2022/06/27 03:17:42;;;;;;;1.83;1.13;;;17.80;99.90;;;;;;5013542;28;20455;-55
2022/06/27 03:20:35;;;;;;;3.47;1.42;;;17.80;99.90;;;;;;4997693;28;20053;-55
2022/06/27 03:23:15;;;;;;;2.42;1.38;;;17.80;99.90;;;;;;5010162;28;20103;-55
2022/06/27 03:25:56;;;;;;;2.95;1.40;;;17.70;99.90;;;;;;5010906;28;20076;-54
2022/06/27 03:28:29;;;;;;;3.53;1.50;;;17.70;99.90;;;;;;5012590;28;20049;-54
2022/06/27 03:30:59;;;;;;;2.78;1.23;;;17.70;99.90;;;;;;4996958;28;20052;-53
2022/06/27 03:33:28;;;;;;;1.90;1.55;;;17.70;99.90;;;;;;5013615;28;20045;-54
2022/06/27 03:36:20;;;;;;;1.67;1.33;;;17.70;99.90;;;;;;5013922;28;20119;-54
2022/06/27 03:38:48;;;;;;;2.47;1.60;;;17.70;99.90;;;;;;4996540;28;20729;-55
2022/06/27 03:41:15;;;;;;;1.10;1.00;;;17.60;99.90;;;;;;5012815;28;20614;-53
2022/06/27 03:43:42;;;;;;;3.17;1.30;;;17.60;99.90;;;;;;5011882;28;20061;-53
2022/06/27 03:46:09;;;;;;;1.40;1.02;;;17.60;99.90;;;;;;5013090;28;20088;-53
2022/06/27 03:51:40;;;;;;;1.45;1.08;;;17.60;99.90;;;;;;5012199;28;20049;-53
2022/06/27 03:54:07;;;;;;;3.13;1.30;;;17.50;99.90;;;;;;5014216;28;20769;-53
2022/06/27 03:56:34;;;;;;;1.23;1.05;;;17.50;99.90;;;;;;5014382;28;20092;-53
2022/06/27 03:59:01;;;;;;;1.83;1.30;;;17.50;99.90;;;;;;5011967;28;20145;-54
2022/06/27 04:01:28;;;;;;;1.10;1.10;;;17.50;99.90;;;;;;5013638;28;20511;-54
2022/06/27 04:03:55;;;;;;;1.83;1.10;;;17.50;99.90;;;;;;4996179;28;20055;-54
2022/06/27 04:06:24;;;;;;;2.30;1.15;;;17.50;99.90;;;;;;5012315;28;20041;-54
2022/06/27 04:08:51;;;;;;;2.83;1.10;;;17.40;99.90;;;;;;4995951;28;20049;-54
2022/06/27 04:11:18;;;;;;;1.08;0.98;;;17.40;99.90;;;;;;4996113;28;20081;-51
2022/06/27 04:13:48;;;;;;;1.95;1.17;;;17.40;99.90;;;;;;5013160;28;20503;-52
2022/06/27 04:16:34;;;;;;;3.08;0.98;;;17.30;99.90;;;;;;5013589;28;20565;-53
2022/06/27 04:19:36;;;;;;;1.65;1.15;;;17.40;99.90;;;;;;4991045;28;20088;-53
2022/06/27 04:22:12;;;;;;;2.00;1.20;;;17.40;99.90;;;;;;4989045;28;20054;-53
2022/06/27 04:24:48;;;;;;;1.55;1.10;;;17.40;99.90;;;;;;5009487;28;20155;-53
2022/06/27 04:27:20;;;;;;;0.95;0.90;;;17.40;99.90;;;;;;5011813;28;20049;-52
2022/06/27 04:29:48;;;;;;;0.85;0.75;;;17.40;99.90;;;;;;5011782;28;20800;-52
2022/06/27 04:32:20;;;;;;;2.97;1.20;;;17.50;99.90;;;;;;5011960;28;20586;-53
2022/06/27 04:34:47;;;;;;;2.55;1.40;;;17.50;99.90;;;;;;5012134;28;20888;-54
2022/06/27 04:37:15;;;;;;;1.90;1.27;;;17.60;99.90;;;;;;5012173;28;20045;-53
2022/06/27 04:40:05;;;;;;;2.03;1.42;;;17.60;99.90;;;;;;5012850;28;20099;-53
2022/06/27 04:42:31;;;;;;;1.20;1.10;;;17.60;99.90;;;;;;5011249;28;20136;-53
2022/06/27 04:44:58;;;;;;;;;;;17.70;99.90;;;;;;5013242;28;20917;-52
2022/06/27 04:47:26;;;;;;;;;;;17.80;99.90;;;;;;5012808;28;20437;-53
2022/06/27 04:50:08;;;;;;;2.78;1.48;;;17.80;99.90;;;;;;5011334;28;19967;-52
2022/06/27 04:52:35;;;;;;;1.65;1.50;;;17.90;99.90;;;;;;5011923;28;20363;-53
2022/06/27 04:55:02;;;;;;;1.70;1.45;;;17.80;99.90;;;;;;5011842;28;20881;-52
2022/06/27 04:57:31;;;;;;;2.47;1.08;;;17.90;99.90;;;;;;5011449;28;20051;-51
2022/06/27 05:00:00;;;;;;;1.35;1.00;;;17.90;99.90;;;;;;5011710;28;20058;-52
2022/06/27 05:02:47;;;;;;;1.87;1.23;;;18.00;99.90;;;;;;5013664;28;20045;-50
2022/06/27 05:05:14;;;;;;;4.30;1.08;;;18.00;99.90;;;;;;5016961;28;20041;-48
2022/06/27 05:07:43;;;;;;;2.83;1.48;;;18.00;99.90;;;;;;5015792;28;20731;-52
2022/06/27 05:10:10;;;;;;;2.45;1.52;;;18.10;99.90;;;;;;5015906;28;20148;-49
2022/06/27 05:12:38;;;;;;;1.23;1.13;;;18.10;99.90;;;;;;5014939;28;20769;-52
2022/06/27 05:15:06;;;;;;;1.15;1.00;;;18.20;99.90;;;;;;5015663;28;20049;-50
2022/06/27 05:17:33;;;;;;;1.10;1.10;;;18.30;99.90;;;;;;5017112;28;20125;-50
2022/06/27 05:20:02;;;;;;;2.97;1.27;;;18.30;99.90;;;;;;5015077;28;20053;-52
2022/06/27 05:22:30;;;;;;;1.63;1.45;;;18.30;99.90;;;;;;5015732;28;20041;-53
2022/06/27 05:24:58;;;;;;;2.72;1.50;;;18.40;99.90;;;;;;5012010;28;20046;-48
2022/06/27 05:27:25;;;;;;;2.60;1.35;;;18.40;99.90;;;;;;5014556;28;20053;-48
2022/06/27 05:29:52;;;;;;;1.73;1.00;;;18.40;99.90;;;;;;5014338;28;20149;-54
2022/06/27 05:32:20;;;;;;;5.32;1.30;;;18.50;99.90;;;;;;5015069;28;20515;-54
2022/06/27 05:34:49;;;;;;;1.25;1.15;;;18.60;99.90;;;;;;5014827;28;20052;-57
2022/06/27 05:37:16;;;;;;;1.95;1.23;;;18.60;99.90;;;;;;5016132;28;20057;-56
2022/06/27 05:39:45;;;;;;;4.78;1.45;;;18.70;99.90;;;;;;5015305;28;20140;-57
2022/06/27 05:42:11;;;;;;;1.88;1.33;;;18.80;99.90;;;;;;5014793;28;20037;-55
2022/06/27 05:44:39;;;;;;;1.35;1.17;;;18.80;99.90;;;;;;5015135;28;20526;-54
2022/06/27 05:47:07;;;;;;;1.27;1.10;;;18.80;99.90;;;;;;5015995;28;20037;-54
2022/06/27 05:49:34;;;;;;;1.48;1.08;;;18.90;99.90;;;;;;5017527;28;20037;-57
2022/06/27 05:52:02;;;;;;;3.55;1.25;;;18.90;99.90;;;;;;4999482;28;20050;-57
2022/06/27 05:54:29;;;;;;;2.30;1.25;;;19.00;99.90;;;;;;4999523;28;20820;-53
2022/06/27 05:56:58;;;;;;;1.40;1.30;;;19.10;99.90;;;;;;5016075;28;20041;-54
2022/06/27 05:59:25;;;;;;;4.35;1.75;;;19.20;99.90;;;;;;5014765;28;20132;-54
2022/06/27 06:01:54;;;;;;;3.13;1.38;;;19.30;99.90;;;;;;5016110;28;20562;-57
2022/06/27 06:04:21;;;;;;;2.15;1.80;;;19.40;99.90;;;;;;5014908;28;20168;-55
2022/06/27 06:06:49;;;;;;;1.38;1.05;;;19.60;99.90;;;;;;5014645;28;20467;-55
2022/06/27 06:09:16;;;;;;;2.75;1.05;;;19.70;99.90;;;;;;5015933;28;20286;-54
2022/06/27 06:11:48;;;;;;;2.33;1.67;;;19.70;99.90;;;;;;5015904;28;20061;-57
2022/06/27 06:14:19;;;;;;;1.85;1.75;;;19.80;99.90;;;;;;5015481;28;20141;-57
2022/06/27 06:16:47;;;;;;;4.88;1.65;;;19.80;99.90;;;;;;5015351;28;20523;-57
2022/06/27 06:19:14;;;;;;;3.30;1.40;;;19.80;99.90;;;;;;5015442;28;20048;-55
2022/06/27 06:21:43;;;;;;;2.42;1.50;;;19.80;99.90;;;;;;5016843;28;20050;-57
2022/06/27 06:24:10;;;;;;;4.07;1.30;;;19.80;99.90;;;;;;5016607;28;20080;-57
2022/06/27 06:26:37;;;;;;;1.70;1.60;;;19.80;99.90;;;;;;5011718;28;20057;-56
2022/06/27 06:29:14;;;;;;;3.53;2.10;;;19.80;99.90;;;;;;5014039;28;20426;-54
2022/06/27 06:32:02;;;;;;;2.33;2.13;;;19.80;99.90;;;;;;5015294;28;20536;-54
2022/06/27 06:34:33;;;;;;;3.28;2.60;;;19.80;99.90;;;;;;5014483;28;20103;-55
2022/06/27 06:37:01;;;;;;;4.28;2.10;;;19.80;99.90;;;;;;5014916;28;20045;-55
2022/06/27 06:39:29;;;;;;;4.38;1.98;;;19.80;99.90;;;;;;4997747;28;20053;-53
2022/06/27 06:41:57;;;;;;;2.13;1.90;;;19.90;99.90;;;;;;5015239;28;20763;-54
2022/06/27 06:44:24;;;;;;;8.07;2.30;;;19.90;99.90;;;;;;5014439;28;20065;-54
2022/06/27 06:47:02;;;;;;;1.58;1.48;;;20.00;99.90;;;;;;5015203;28;20088;-55
2022/06/27 06:49:40;;;;;;;2.47;1.77;;;20.00;99.90;;;;;;5014705;28;20049;-55
2022/06/27 06:52:07;;;;;;;3.15;1.85;;;20.10;99.90;;;;;;5017297;28;20072;-54
2022/06/27 06:54:34;;;;;;;5.20;1.75;;;20.10;99.90;;;;;;5014345;28;20886;-54
2022/06/27 06:57:01;;;;;;;4.28;2.45;;;20.20;99.90;;;;;;5015653;28;20060;-55
2022/06/27 06:59:28;;;;;;;4.03;2.08;;;20.20;99.90;;;;;;5013783;28;20041;-53
2022/06/27 07:01:55;;;;;;;2.47;1.85;;;20.20;99.90;;;;;;5015350;28;20042;-60
2022/06/27 07:04:23;;;;;;;1.52;1.40;;;20.10;99.90;;;;;;5015191;28;20045;-60
2022/06/27 07:06:51;;;;;;;2.35;1.77;;;20.20;99.90;;;;;;5014878;28;20535;-61
2022/06/27 07:09:18;;;;;;;2.25;1.88;;;20.20;99.90;;;;;;5014727;28;20046;-60
2022/06/27 07:11:45;;;;;;;3.50;1.88;;;20.30;99.90;;;;;;5015117;28;20527;-61
2022/06/27 07:14:13;;;;;;;5.97;2.40;;;20.30;99.90;;;;;;5016077;28;20462;-60
2022/06/27 07:16:40;;;;;;;2.17;1.65;;;20.30;99.90;;;;;;5014910;28;20052;-61
2022/06/27 07:19:08;;;;;;;2.10;1.73;;;20.40;99.90;;;;;;5014772;28;20042;-60
2022/06/27 07:21:35;;;;;;;7.88;1.98;;;20.50;99.90;;;;;;5015595;28;20076;-61
2022/06/27 07:24:03;;;;;;;3.10;2.03;;;20.50;99.90;;;;;;5014716;28;20664;-61
2022/06/27 07:26:32;;;;;;;4.38;1.40;;;20.60;99.90;;;;;;5012460;28;20067;-62
2022/06/27 07:29:04;;;;;;;1.98;1.73;;;20.60;99.90;;;;;;5004613;28;20046;-63
2022/06/27 07:31:32;;;;;;;4.57;2.15;;;20.70;99.90;;;;;;5012707;28;20045;-60
2022/06/27 07:34:00;;;;;;;2.10;1.90;;;20.70;99.90;;;;;;5012675;28;20733;-60
2022/06/27 07:36:29;;;;;;;2.88;1.83;;;20.80;99.90;;;;;;5009717;28;20049;-63
2022/06/27 07:38:56;;;;;;;2.60;1.83;;;20.90;99.90;;;;;;5005376;28;20726;-64
2022/06/27 07:41:24;;;;;;;6.35;1.70;;;21.00;99.90;;;;;;5001871;28;20953;-65
2022/06/27 07:43:51;;;;;;;5.03;1.80;;;21.10;99.90;;;;;;4997519;28;20630;-64
2022/06/27 07:46:20;;;;;;;3.13;1.73;;;21.20;99.90;;;;;;4998375;28;20049;-63
2022/06/27 07:48:49;;;;;;;5.97;2.30;;;21.20;99.90;;;;;;5007519;28;20054;-64
2022/06/27 07:51:19;;;;;;;5.63;1.95;;;21.30;99.90;;;;;;5011801;28;20049;-62
2022/06/27 07:53:48;;;;;;;2.17;1.98;;;21.30;99.90;;;;;;5015187;28;20056;-64
2022/06/27 07:56:17;;;;;;;6.15;1.63;;;21.40;99.90;;;;;;5015017;28;20055;-63
2022/06/27 07:58:54;;;;;;;6.22;1.80;;;21.50;99.90;;;;;;5014721;28;20049;-65
2022/06/27 08:01:22;;;;;;;2.42;2.10;;;21.60;99.90;;;;;;5013899;28;20608;-61
2022/06/27 08:03:50;;;;;;;3.58;1.70;;;21.70;99.90;;;;;;5012661;28;20064;-63
2022/06/27 08:06:23;;;;;;;2.70;1.88;;;21.70;99.90;;;;;;5014290;28;20025;-63
2022/06/27 08:09:06;;;;;;;2.88;1.90;;;21.80;99.90;;;;;;5013952;28;20099;-65
2022/06/27 08:11:36;;;;;;;3.90;1.50;;;21.80;99.90;;;;;;5014690;28;20052;-63
2022/06/27 08:14:07;;;;;;;4.25;1.80;;;22.00;99.90;;;;;;5014050;28;20057;-61
2022/06/27 08:16:38;;;;;;;5.30;2.30;;;22.10;99.90;;;;;;5014210;28;20451;-64
2022/06/27 08:19:07;;;;;;;2.40;1.85;;;22.40;99.90;;;;;;5004859;28;20041;-62
2022/06/27 08:21:35;;;;;;;1.70;1.55;;;22.40;99.90;;;;;;5014633;28;20778;-63
2022/06/27 08:24:05;;;;;;;2.75;1.60;;;22.50;99.90;;;;;;5013923;28;20068;-63
2022/06/27 08:26:32;;;;;;;1.95;1.80;;;22.60;99.90;;;;;;5013692;28;20050;-63
2022/06/27 08:28:59;;;;;;;2.00;1.80;;;22.80;99.90;;;;;;5004075;28;20055;-64
2022/06/27 08:31:27;;;;;;;1.98;1.35;;;22.90;99.90;;;;;;5011272;28;20053;-64
2022/06/27 08:34:04;;;;;;;3.28;2.17;;;23.20;99.90;;;;;;5014105;28;20053;-62
2022/06/27 08:36:33;;;;;;;4.82;1.73;;;23.40;99.90;;;;;;5013730;28;20048;-60
2022/06/27 08:39:11;;;;;;;3.30;1.92;;;23.60;99.90;;;;;;5011931;28;20049;-60
2022/06/27 08:41:38;;;;;;;2.03;1.58;;;23.70;99.90;;;;;;5011574;28;20037;-61
2022/06/27 08:44:06;;;;;;;3.95;1.88;;;23.90;99.90;;;;;;5014260;28;20726;-60
2022/06/27 08:46:34;;;;;;;2.80;1.75;;;24.10;99.90;;;;;;5013450;28;20669;-61
2022/06/27 08:49:04;;;;;;;14.20;1.90;;;24.30;99.90;;;;;;5012850;28;20045;-60
2022/06/27 08:51:33;;;;;;;1.50;1.40;;;24.40;99.90;;;;;;5012242;28;20041;-60
2022/06/27 08:54:01;;;;;;;3.28;1.60;;;24.40;99.90;;;;;;5013090;28;20878;-60
2022/06/27 08:56:30;;;;;;;1.75;1.60;;;24.40;99.90;;;;;;5013628;28;20053;-60
2022/06/27 08:58:59;;;;;;;2.10;1.27;;;24.60;99.90;;;;;;4995227;28;20187;-60
2022/06/27 09:01:27;;;;;;;1.80;1.70;;;24.90;99.90;;;;;;5013359;28;20092;-61
2022/06/27 09:04:04;;;;;;;4.80;1.10;;;25.10;99.90;;;;;;5011759;28;20064;-60
2022/06/27 09:06:33;;;;;;;2.60;1.20;;;25.40;99.90;;;;;;5013529;28;20048;-61
2022/06/27 09:09:06;;;;;;;4.78;1.60;;;25.50;99.90;;;;;;5013493;28;20045;-60
2022/06/27 09:11:39;;;;;;;4.07;1.50;;;25.40;99.90;;;;;;5013288;28;20041;-61
2022/06/27 09:14:26;;;;;;;1.38;1.27;;;25.40;99.90;;;;;;5014433;28;20793;-61
2022/06/27 09:16:58;;;;;;;3.55;1.48;;;25.50;99.90;;;;;;5013085;28;20697;-61
2022/06/27 09:19:48;;;;;;;3.30;1.23;;;25.70;99.90;;;;;;5012953;28;20037;-61
2022/06/27 09:22:17;;;;;;;1.20;1.10;;;25.80;99.90;;;;;;5012628;28;20128;-61
2022/06/27 09:25:06;;;;;;;2.83;0.93;;;25.60;99.90;;;;;;5012107;28;20041;-61
2022/06/27 09:27:42;;;;;;;5.55;1.52;;;25.40;99.90;;;;;;5002233;28;20061;-63
2022/06/27 09:30:18;;;;;;;5.50;1.30;;;25.30;99.90;;;;;;5009372;28;20046;-68
2022/06/27 09:32:49;;;;;;;1.02;0.80;;;25.20;99.90;;;;;;5009426;28;20049;-69
2022/06/27 09:35:31;;;;;;;6.93;1.70;;;25.10;99.90;;;;;;5006305;28;20037;-71
2022/06/27 09:38:04;;;;;;;2.95;1.60;;;25.00;99.90;;;;;;5007909;28;20045;-65
2022/06/27 09:40:33;;;;;;;3.20;1.40;;;24.90;99.90;;;;;;5008290;28;20053;-67
2022/06/27 09:43:04;;;;;;;3.65;1.40;;;24.70;99.90;;;;;;5007977;28;20120;-68
2022/06/27 09:45:32;;;;;;;4.93;1.60;;;24.60;99.90;;;;;;5005189;28;20050;-68
2022/06/27 09:48:05;;;;;;;5.72;1.67;;;24.50;99.90;;;;;;5007010;28;20113;-69
2022/06/27 09:50:39;;;;;;;4.43;2.03;;;24.20;99.90;;;;;;4995098;28;20050;-66
2022/06/27 09:53:06;;;;;;;2.42;1.10;;;24.00;99.90;;;;;;4997177;28;20886;-68
2022/06/27 09:55:35;;;;;;;5.05;1.65;;;23.80;99.90;;;;;;4997147;28;20070;-68
2022/06/27 09:58:03;;;;;;;6.22;1.70;;;23.80;99.90;;;;;;4996860;28;20710;-67
2022/06/27 10:00:32;;;;;;;2.80;1.67;;;23.80;99.90;;;;;;4996251;28;20041;-68
2022/06/27 10:02:59;;;;;;;3.97;1.60;;;23.70;99.90;;;;;;4997169;28;20042;-68
2022/06/27 10:05:27;;;;;;;4.72;1.92;;;23.70;99.90;;;;;;4995211;28;20037;-68
2022/06/27 10:08:02;;;;;;;1.83;1.55;;;23.70;99.90;;;;;;4994568;28;20050;-67
2022/06/27 10:11:08;;;;;;;2.25;1.98;;;23.70;99.90;;;;;;4995634;28;20220;-67
2022/06/27 10:13:42;;;;;;;3.20;1.27;;;23.90;99.90;;;;;;4996489;28;20049;-67
2022/06/27 10:16:14;;;;;;;1.55;1.23;;;24.00;99.90;;;;;;4996598;28;20046;-68
2022/06/27 10:18:56;;;;;;;3.35;1.30;;;24.10;99.90;;;;;;5011443;28;20049;-66
2022/06/27 10:21:28;;;;;;;1.88;1.50;;;24.20;99.90;;;;;;5016878;28;20111;-67
2022/06/27 10:24:21;;;;;;;2.60;1.42;;;24.10;99.90;;;;;;5015891;28;20042;-67
2022/06/27 10:26:51;;;;;;;2.58;1.98;;;24.00;99.90;;;;;;5016352;28;20046;-66
2022/06/27 10:29:29;;;;;;;3.15;2.10;;;23.90;99.90;;;;;;5014398;28;20041;-67
2022/06/27 10:31:57;;;;;;;2.92;1.88;;;23.70;99.90;;;;;;5009866;28;20908;-65
2022/06/27 10:34:40;;;;;;;4.00;1.67;;;23.60;99.90;;;;;;5014421;28;20099;-64
2022/06/27 10:37:19;;;;;;;3.88;2.03;;;23.50;99.90;;;;;;5015951;28;20380;-65
2022/06/27 10:39:47;;;;;;;2.53;2.20;;;23.50;99.90;;;;;;5014877;28;20073;-64
2022/06/27 10:42:44;;;;;;;4.57;1.90;;;23.50;99.90;;;;;;5015405;28;20041;-64
2022/06/27 10:45:20;;;;;;;3.67;2.58;;;23.50;99.90;;;;;;5015875;28;20507;-64
2022/06/27 10:47:49;;;;;;;3.28;1.88;;;23.50;99.90;;;;;;5015632;28;20045;-65
2022/06/27 10:50:19;;;;;;;3.17;2.88;;;23.50;99.90;;;;;;5015696;28;20107;-64
2022/06/27 10:52:46;;;;;;;2.92;2.45;;;23.50;99.90;;;;;;5015046;28;20056;-65
2022/06/27 10:55:22;;;;;;;3.38;2.33;;;23.60;99.90;;;;;;5016699;28;20132;-65
2022/06/27 10:57:49;;;;;;;3.20;2.60;;;23.80;99.90;;;;;;5015568;28;20046;-68
2022/06/27 11:00:39;;;;;;;3.15;2.85;;;24.00;99.90;;;;;;5015191;28;20586;-67
2022/06/27 11:03:28;;;;;;;3.53;2.13;;;24.20;99.90;;;;;;5015276;28;20824;-66
2022/06/27 11:06:01;;;;;;;3.22;2.50;;;24.30;99.90;;;;;;5015208;28;20128;-67
2022/06/27 11:08:29;;;;;;;4.25;2.90;;;24.60;99.90;;;;;;5013698;28;20148;-65
2022/06/27 11:10:56;;;;;;;5.72;3.13;;;24.60;99.90;;;;;;5013992;28;20064;-64
2022/06/27 11:13:46;;;;;;;3.47;2.97;;;24.50;99.90;;;;;;5015243;28;20042;-66
2022/06/27 11:16:14;;;;;;;4.10;2.95;;;24.30;99.90;;;;;;5015667;28;20037;-66
2022/06/27 11:18:47;;;;;;;2.88;2.15;;;24.30;99.90;;;;;;5014803;28;20048;-65
2022/06/27 11:21:19;;;;;;;4.53;2.22;;;24.20;99.90;;;;;;5015307;28;20648;-66
2022/06/27 11:23:50;;;;;;;2.33;2.05;;;24.10;99.90;;;;;;5015492;28;20045;-66
2022/06/27 11:26:18;;;;;;;2.50;2.30;;;24.10;99.90;;;;;;5015027;28;20041;-64
2022/06/27 11:34:28;;;;;;;2.13;1.92;;;24.10;99.90;;;;;;5013333;28;20045;-65
2022/06/27 11:36:56;;;;;;;3.20;2.65;;;24.00;99.90;;;;;;5013166;28;20128;-65
2022/06/27 11:39:25;;;;;;;5.88;2.22;;;24.10;99.90;;;;;;5014691;28;20048;-65
2022/06/27 11:42:09;;;;;;;2.88;2.03;;;24.20;99.90;;;;;;5012099;28;20041;-66
2022/06/27 11:44:56;;;;;;;4.32;2.00;;;24.20;99.90;;;;;;5014519;28;20053;-67
2022/06/27 11:47:27;;;;;;;1.85;1.73;;;24.30;99.90;;;;;;5014273;28;20046;-63
2022/06/27 11:50:12;;;;;;;3.80;1.42;;;24.50;99.90;;;;;;5014615;28;21052;-67
2022/06/27 11:52:44;;;;;;;2.03;1.83;;;24.60;99.90;;;;;;5014567;28;20171;-66
2022/06/27 11:55:18;;;;;;;2.38;1.90;;;24.70;99.90;;;;;;5013129;28;20080;-64
2022/06/27 11:57:56;;;;;;;1.48;1.38;;;24.80;99.90;;;;;;5014194;28;20068;-67
2022/06/27 12:00:28;;;;;;;2.75;1.73;;;24.80;99.90;;;;;;4995454;28;20045;-66
2022/06/27 12:03:04;;;;;;;3.10;1.40;;;24.70;99.90;;;;;;5014422;28;20045;-64
2022/06/27 12:05:32;;;;;;;4.25;1.50;;;24.60;99.90;;;;;;5013837;28;20613;-65
2022/06/27 12:08:03;;;;;;;2.22;1.50;;;24.40;99.90;;;;;;5008846;28;20080;-60
2022/06/27 12:10:44;;;;;;;2.35;2.00;;;24.40;99.90;;;;;;4993076;28;20049;-62
2022/06/27 12:13:16;;;;;;;2.42;1.60;;;24.40;99.90;;;;;;5005569;28;20045;-60
2022/06/27 12:15:45;;;;;;;2.25;1.70;;;24.30;99.90;;;;;;5011998;28;20059;-63
2022/06/27 12:18:13;;;;;;;2.35;1.60;;;24.30;99.90;;;;;;5013846;28;20049;-62
2022/06/27 12:20:43;;;;;;;1.70;1.60;;;24.30;99.90;;;;;;5012854;28;20124;-58
2022/06/27 12:23:10;;;;;;;2.47;1.70;;;24.30;99.90;;;;;;5012422;28;20046;-59
2022/06/27 12:25:37;;;;;;;3.47;1.67;;;24.30;99.90;;;;;;5014272;28;20686;-60
2022/06/27 12:28:05;;;;;;;3.05;1.42;;;24.40;99.90;;;;;;5013351;28;20049;-60
2022/06/27 12:30:33;;;;;;;3.55;1.70;;;24.40;99.90;;;;;;5013861;28;20115;-60
2022/06/27 12:33:00;;;;;;;1.50;1.38;;;24.40;99.90;;;;;;5008368;28;20049;-60
2022/06/27 12:35:27;;;;;;;3.80;1.80;;;24.30;99.90;;;;;;5013515;28;20050;-61
2022/06/27 12:38:02;;;;;;;7.07;1.77;;;24.20;99.90;;;;;;5013867;28;20053;-60
2022/06/27 12:40:29;;;;;;;3.03;1.30;;;24.10;99.90;;;;;;5020496;28;20052;-60
2022/06/27 12:43:06;;;;;;;2.80;1.52;;;23.90;99.90;;;;;;5013128;28;20137;-61
2022/06/27 12:45:35;;;;;;;1.33;1.23;;;23.80;99.90;;;;;;5013103;28;20041;-64
2022/06/27 12:48:09;;;;;;;1.98;1.30;;;23.70;99.90;;;;;;5012526;28;20037;-63
2022/06/27 12:50:36;;;;;;;4.20;1.42;;;23.60;99.90;;;;;;5011997;28;20045;-63
2022/06/27 12:53:03;;;;;;;2.33;1.27;;;23.60;99.90;;;;;;5014112;28;20128;-63
2022/06/27 12:55:30;;;;;;;2.30;1.35;;;23.50;99.90;;;;;;5011549;28;20041;-65
2022/06/27 12:57:57;;;;;;;2.95;1.27;;;23.40;99.90;;;;;;5013924;28;20193;-65
2022/06/27 13:00:24;;;;;;;1.25;1.15;;;23.30;99.90;;;;;;5012782;28;20450;-64
2022/06/27 13:02:51;;;;;;;1.48;0.85;;;23.20;99.90;;;;;;5011191;28;20049;-63
2022/06/27 13:05:25;;;;;;;1.42;1.33;;;23.10;99.90;;;;;;5010648;28;20057;-64
2022/06/27 13:07:52;;;;;;;3.38;1.00;;;23.10;99.90;;;;;;5012966;28;20040;-65
2022/06/27 13:10:19;;;;;;;2.03;1.30;;;23.00;99.90;;;;;;5014015;28;20248;-64
2022/06/27 13:12:46;;;;;;;3.13;1.35;;;23.10;99.90;;;;;;5011500;28;20053;-64
2022/06/27 13:15:15;;;;;;;1.10;1.00;;;23.00;99.90;;;;;;5013957;28;20053;-64